Time;durP1;ratioP1;P1;durP2;ratioP2;P2;SDS_P1;SDS_P2;PMS_P1;PMS_P2;Temp;Humidity;BMP_temperature;BMP_pressure;BME280_temperature;BME280_humidity;BME280_pressure;Samples;Min_cycle;Max_cycle;Signal;HPM_P1;HPM_P2
2023/04/23 00:01:26;;;;;;;11.35;7.68;;;13.40;99.90;;;;;;5034033;28;20025;-72
2023/04/23 00:03:56;;;;;;;13.15;7.35;;;13.40;99.90;;;;;;5020473;28;20037;-72
2023/04/23 00:06:25;;;;;;;11.25;7.15;;;13.40;99.90;;;;;;5035523;28;20033;-72
2023/04/23 00:08:52;;;;;;;16.77;7.63;;;13.40;99.90;;;;;;5033522;28;20455;-72
2023/04/23 00:11:18;;;;;;;10.85;7.03;;;13.40;99.90;;;;;;5035276;28;20033;-72
2023/04/23 00:13:46;;;;;;;12.05;7.00;;;13.50;99.90;;;;;;5035464;28;20080;-72
2023/04/23 00:16:12;;;;;;;12.35;6.88;;;13.40;99.90;;;;;;5035820;28;20493;-72
2023/04/23 00:18:38;;;;;;;12.38;7.53;;;13.40;99.90;;;;;;5034212;28;20479;-72
2023/04/23 00:21:04;;;;;;;11.40;7.55;;;13.30;99.90;;;;;;5035375;28;20049;-72
2023/04/23 00:23:29;;;;;;;12.20;8.18;;;13.30;99.90;;;;;;5035314;28;20383;-72
2023/04/23 00:25:55;;;;;;;14.77;8.32;;;13.40;99.90;;;;;;5033872;28;20033;-72
2023/04/23 00:28:21;;;;;;;12.20;8.88;;;13.50;99.90;;;;;;5034590;28;20037;-72
2023/04/23 00:30:46;;;;;;;10.27;7.70;;;13.50;99.90;;;;;;5035211;28;20034;-72
2023/04/23 00:33:12;;;;;;;11.98;7.68;;;13.50;99.90;;;;;;5034558;28;20079;-72
2023/04/23 00:35:38;;;;;;;15.57;7.60;;;13.50;99.90;;;;;;5033589;28;20010;-72
2023/04/23 00:38:04;;;;;;;14.63;8.18;;;13.50;99.90;;;;;;5035462;28;20033;-72
2023/04/23 00:40:30;;;;;;;17.15;9.02;;;13.40;99.90;;;;;;5035211;28;20029;-72
2023/04/23 00:42:57;;;;;;;12.52;8.38;;;13.40;99.90;;;;;;5034951;28;20037;-72
2023/04/23 00:45:23;;;;;;;13.10;8.32;;;13.40;99.90;;;;;;5034231;28;20100;-73
2023/04/23 00:47:48;;;;;;;14.18;8.35;;;13.40;99.90;;;;;;5018855;28;20034;-72
2023/04/23 00:50:14;;;;;;;12.68;8.07;;;13.40;99.90;;;;;;5014805;28;20022;-72
2023/04/23 00:52:40;;;;;;;13.45;8.30;;;13.30;99.90;;;;;;5015311;28;20022;-72
2023/04/23 00:55:07;;;;;;;15.05;9.48;;;13.30;99.90;;;;;;5015048;28;20022;-72
2023/04/23 00:57:35;;;;;;;11.23;7.63;;;13.30;99.90;;;;;;5028624;28;20033;-72
2023/04/23 01:00:01;;;;;;;12.57;8.15;;;13.30;99.90;;;;;;5034497;28;20372;-72
2023/04/23 01:02:29;;;;;;;12.35;8.27;;;13.40;99.90;;;;;;5030213;28;20021;-72
2023/04/23 01:04:56;;;;;;;13.65;8.35;;;13.40;99.90;;;;;;5014734;28;20116;-72
2023/04/23 01:07:22;;;;;;;14.90;8.35;;;13.40;99.90;;;;;;5014736;28;20029;-72
2023/04/23 01:09:51;;;;;;;15.30;8.65;;;13.50;99.90;;;;;;5016408;28;20026;-72
2023/04/23 01:12:17;;;;;;;11.98;7.40;;;13.50;99.90;;;;;;5016341;28;20061;-72
2023/04/23 01:14:43;;;;;;;11.75;7.53;;;13.40;99.90;;;;;;5016418;28;20038;-72
2023/04/23 01:17:11;;;;;;;11.07;8.18;;;13.40;99.90;;;;;;5014163;28;20048;-72
2023/04/23 01:19:37;;;;;;;14.07;8.15;;;13.30;99.90;;;;;;5017802;28;20026;-72
2023/04/23 01:22:11;;;;;;;17.65;7.93;;;13.10;99.90;;;;;;5014729;28;20053;-72
2023/04/23 01:24:37;;;;;;;12.80;7.72;;;13.10;99.90;;;;;;5014099;28;20476;-72
2023/04/23 01:27:03;;;;;;;12.63;7.95;;;13.10;99.90;;;;;;5014410;28;20022;-73
2023/04/23 01:29:30;;;;;;;14.60;8.57;;;13.10;99.90;;;;;;5029453;28;20558;-72
2023/04/23 01:31:56;;;;;;;14.30;7.70;;;13.20;99.90;;;;;;5033986;28;20053;-72
2023/04/23 01:34:22;;;;;;;13.15;8.43;;;13.30;99.90;;;;;;5034047;28;20022;-72
2023/04/23 01:36:48;;;;;;;12.68;8.52;;;13.40;99.90;;;;;;5034029;28;20071;-72
2023/04/23 01:39:14;;;;;;;10.98;7.68;;;13.40;99.90;;;;;;5025850;28;20064;-72
2023/04/23 01:41:40;;;;;;;12.65;8.73;;;13.20;99.90;;;;;;5014195;28;20472;-72
2023/04/23 01:44:06;;;;;;;14.68;8.18;;;13.30;99.90;;;;;;5013327;28;20042;-72
2023/04/23 01:46:32;;;;;;;16.95;8.63;;;13.00;99.90;;;;;;5013725;28;20153;-72
2023/04/23 01:48:58;;;;;;;13.30;9.18;;;13.10;99.90;;;;;;5018440;28;20068;-72
2023/04/23 01:51:24;;;;;;;27.60;9.80;;;13.30;99.90;;;;;;5033494;28;20064;-72
2023/04/23 01:53:50;;;;;;;15.73;9.38;;;13.40;99.90;;;;;;5033446;28;20093;-72
2023/04/23 01:56:21;;;;;;;13.68;8.18;;;13.40;99.90;;;;;;5033240;28;20034;-72
2023/04/23 01:58:47;;;;;;;15.40;8.57;;;13.30;99.90;;;;;;5031935;28;20118;-72
2023/04/23 02:01:13;;;;;;;18.33;10.10;;;13.30;99.90;;;;;;5017092;28;20085;-72
2023/04/23 02:03:38;;;;;;;12.93;8.85;;;13.40;99.90;;;;;;5013758;28;20030;-72
2023/04/23 02:06:04;;;;;;;24.42;9.65;;;13.50;99.90;;;;;;5012557;28;20136;-72
2023/04/23 02:08:30;;;;;;;13.75;8.52;;;13.50;99.90;;;;;;5013557;28;20034;-72
2023/04/23 02:10:56;;;;;;;15.20;9.25;;;13.60;99.90;;;;;;5017155;28;20030;-72
2023/04/23 02:13:21;;;;;;;14.98;9.35;;;13.50;99.90;;;;;;5013876;28;20080;-72
2023/04/23 02:15:47;;;;;;;12.52;8.07;;;13.50;99.90;;;;;;5014826;28;20503;-72
2023/04/23 02:18:13;;;;;;;15.98;9.43;;;13.50;99.90;;;;;;5033005;28;20085;-72
2023/04/23 02:20:40;;;;;;;16.92;9.13;;;13.50;99.90;;;;;;5032980;28;20030;-72
2023/04/23 02:23:07;;;;;;;13.63;9.50;;;13.50;99.90;;;;;;5033256;28;20028;-72
2023/04/23 02:25:33;;;;;;;12.65;8.63;;;13.60;99.90;;;;;;5033082;28;20034;-72
2023/04/23 02:28:00;;;;;;;14.38;8.75;;;13.50;99.90;;;;;;5031936;28;20060;-73
2023/04/23 02:30:26;;;;;;;13.55;8.95;;;13.50;99.90;;;;;;5033290;28;20384;-72
2023/04/23 02:32:52;;;;;;;12.82;8.63;;;13.60;99.90;;;;;;5033187;28;20506;-73
2023/04/23 02:35:18;;;;;;;16.90;8.93;;;13.60;99.90;;;;;;5033091;28;20030;-72
2023/04/23 02:37:43;;;;;;;15.48;9.00;;;13.60;99.90;;;;;;5031822;28;20028;-73
2023/04/23 02:40:09;;;;;;;11.30;8.55;;;13.50;99.90;;;;;;5033354;28;20056;-72
2023/04/23 02:42:35;;;;;;;11.43;8.85;;;13.50;99.90;;;;;;5033338;28;20038;-72
2023/04/23 02:45:01;;;;;;;17.83;8.05;;;13.30;99.90;;;;;;5032730;28;20407;-72
2023/04/23 02:47:26;;;;;;;13.18;9.35;;;13.40;99.90;;;;;;5030239;28;20391;-72
2023/04/23 02:49:52;;;;;;;15.02;9.15;;;13.40;99.90;;;;;;5032563;28;20032;-72
2023/04/23 02:52:18;;;;;;;13.35;8.20;;;13.50;99.90;;;;;;5032943;28;20025;-72
2023/04/23 02:54:43;;;;;;;16.55;9.77;;;13.40;99.90;;;;;;5032927;28;20155;-72
2023/04/23 02:57:11;;;;;;;14.52;8.65;;;13.50;99.90;;;;;;5030064;28;20087;-72
2023/04/23 02:59:37;;;;;;;15.07;8.32;;;13.40;99.90;;;;;;5015797;28;20030;-72
2023/04/23 03:02:03;;;;;;;14.07;9.30;;;13.20;99.90;;;;;;5012974;28;20542;-72
2023/04/23 03:04:28;;;;;;;15.00;8.82;;;13.10;99.90;;;;;;5011054;28;20113;-73
2023/04/23 03:06:54;;;;;;;12.35;8.35;;;13.00;99.90;;;;;;5007779;28;20080;-73
2023/04/23 03:09:20;;;;;;;11.65;8.10;;;13.10;99.90;;;;;;5022012;28;20037;-74
2023/04/23 03:11:45;;;;;;;14.77;9.85;;;13.10;99.90;;;;;;5027760;28;20033;-73
2023/04/23 03:14:11;;;;;;;13.23;9.68;;;12.90;99.90;;;;;;5027247;28;20109;-73
2023/04/23 03:16:37;;;;;;;14.85;8.48;;;13.00;99.90;;;;;;5026526;28;20026;-73
2023/04/23 03:19:02;;;;;;;12.95;8.30;;;12.90;99.90;;;;;;5023144;28;20044;-72
2023/04/23 03:21:28;;;;;;;14.23;8.95;;;12.90;99.90;;;;;;5025600;28;20068;-73
2023/04/23 03:23:54;;;;;;;13.65;8.52;;;13.00;99.90;;;;;;5027860;28;20026;-73
2023/04/23 03:26:19;;;;;;;15.10;8.93;;;13.00;99.90;;;;;;5028143;28;20030;-73
2023/04/23 03:28:45;;;;;;;16.05;9.57;;;13.00;99.90;;;;;;5026581;28;20116;-73
2023/04/23 03:31:11;;;;;;;11.82;8.27;;;12.90;99.90;;;;;;5028212;28;20109;-72
2023/04/23 03:33:36;;;;;;;15.30;8.98;;;12.80;99.90;;;;;;5028295;28;20025;-73
2023/04/23 03:36:02;;;;;;;14.80;9.23;;;12.80;99.90;;;;;;5028340;28;20136;-72
2023/04/23 03:38:28;;;;;;;12.50;8.50;;;12.60;99.90;;;;;;5028169;28;20029;-73
2023/04/23 03:40:54;;;;;;;15.77;8.55;;;12.50;99.90;;;;;;5012984;28;20041;-73
2023/04/23 03:43:19;;;;;;;14.05;8.60;;;12.70;99.90;;;;;;5008174;28;20511;-72
2023/04/23 03:45:45;;;;;;;12.00;8.75;;;12.80;99.90;;;;;;5008593;28;20137;-73
2023/04/23 03:48:10;;;;;;;15.00;9.13;;;12.90;99.90;;;;;;5007383;28;20026;-73
2023/04/23 03:50:39;;;;;;;14.02;9.15;;;13.00;99.90;;;;;;5020275;28;20041;-73
2023/04/23 03:53:05;;;;;;;14.98;8.60;;;13.00;99.90;;;;;;5027890;28;20030;-73
2023/04/23 03:55:31;;;;;;;15.00;9.38;;;12.90;99.90;;;;;;5026398;28;20029;-73
2023/04/23 03:58:00;;;;;;;11.65;7.30;;;12.90;99.90;;;;;;5026855;28;20025;-73
2023/04/23 04:00:26;;;;;;;13.00;8.18;;;12.90;99.90;;;;;;5020419;28;20026;-73
2023/04/23 04:02:51;;;;;;;13.23;9.65;;;12.80;99.90;;;;;;5005171;28;20022;-73
2023/04/23 04:05:17;;;;;;;15.20;8.70;;;12.80;99.90;;;;;;5005545;28;20114;-73
2023/04/23 04:07:43;;;;;;;11.68;8.13;;;12.90;99.90;;;;;;5005802;28;20109;-73
2023/04/23 04:10:09;;;;;;;13.80;8.57;;;12.90;99.90;;;;;;5009472;28;20030;-73
2023/04/23 04:12:35;;;;;;;14.27;8.73;;;13.00;99.90;;;;;;5028039;28;20391;-73
2023/04/23 04:15:02;;;;;;;17.05;11.02;;;12.90;99.90;;;;;;5028450;28;20033;-73
2023/04/23 04:17:27;;;;;;;17.33;9.10;;;12.90;99.90;;;;;;5028178;28;20033;-73
2023/04/23 04:19:53;;;;;;;14.15;8.18;;;12.70;99.90;;;;;;5028237;28;20578;-73
2023/04/23 04:22:19;;;;;;;12.73;8.88;;;12.60;99.90;;;;;;5027426;28;20029;-73
2023/04/23 04:24:46;;;;;;;15.07;7.68;;;12.60;99.90;;;;;;5028404;28;20032;-73
2023/04/23 04:27:12;;;;;;;21.00;9.63;;;12.60;99.90;;;;;;5028086;28;20021;-73
2023/04/23 04:29:39;;;;;;;13.10;7.50;;;12.70;99.90;;;;;;5028185;28;20033;-73
2023/04/23 04:32:07;;;;;;;12.95;8.68;;;12.60;99.90;;;;;;5019225;28;20036;-73
2023/04/23 04:34:32;;;;;;;13.60;9.30;;;12.50;99.90;;;;;;5008319;28;20107;-74
2023/04/23 04:36:58;;;;;;;17.42;8.70;;;12.50;99.90;;;;;;5008638;28;20085;-73
2023/04/23 04:39:24;;;;;;;14.07;8.95;;;12.50;99.90;;;;;;5026040;28;20049;-73
2023/04/23 04:41:50;;;;;;;11.98;7.80;;;12.60;99.90;;;;;;5026273;28;20041;-73
2023/04/23 04:44:16;;;;;;;14.77;9.20;;;12.60;99.90;;;;;;5023863;28;20060;-73
2023/04/23 04:46:42;;;;;;;13.35;8.15;;;12.60;99.90;;;;;;5007552;28;20036;-73
2023/04/23 04:49:11;;;;;;;11.60;8.07;;;12.60;99.90;;;;;;5008068;28;20033;-73
2023/04/23 04:51:38;;;;;;;11.70;7.97;;;12.60;99.90;;;;;;5008509;28;20040;-75
2023/04/23 04:54:06;;;;;;;14.25;9.32;;;12.80;99.90;;;;;;5024302;28;20375;-73
2023/04/23 04:56:32;;;;;;;14.13;8.75;;;13.00;99.90;;;;;;5027719;28;20029;-73
2023/04/23 04:58:58;;;;;;;12.73;9.57;;;13.10;99.90;;;;;;5027228;28;20104;-73
2023/04/23 05:01:25;;;;;;;12.90;8.30;;;13.30;99.90;;;;;;5027344;28;20106;-73
2023/04/23 05:03:52;;;;;;;11.98;8.25;;;13.30;99.90;;;;;;5014447;28;20396;-72
2023/04/23 05:06:18;;;;;;;14.60;8.32;;;13.20;99.90;;;;;;5007918;28;20044;-73
2023/04/23 05:08:46;;;;;;;11.98;8.32;;;13.10;99.90;;;;;;5007961;28;20034;-73
2023/04/23 05:11:14;;;;;;;14.38;8.80;;;13.10;99.90;;;;;;5007750;28;20394;-73
2023/04/23 05:13:40;;;;;;;11.75;8.82;;;13.10;99.90;;;;;;5010840;28;20037;-73
2023/04/23 05:16:06;;;;;;;12.60;9.40;;;13.30;99.90;;;;;;5007349;28;20561;-73
2023/04/23 05:18:31;;;;;;;13.20;7.90;;;13.30;99.90;;;;;;5007600;28;20057;-73
2023/04/23 05:20:57;;;;;;;12.10;8.10;;;13.40;99.90;;;;;;5007426;28;20515;-73
2023/04/23 05:23:23;;;;;;;13.25;8.85;;;13.40;99.90;;;;;;5024056;28;20033;-73
2023/04/23 05:25:50;;;;;;;11.15;7.43;;;13.40;99.90;;;;;;5026801;28;20490;-73
2023/04/23 05:28:16;;;;;;;10.23;7.22;;;13.40;99.90;;;;;;5026677;28;20053;-73
2023/04/23 05:30:42;;;;;;;11.23;7.97;;;13.20;99.90;;;;;;5026390;28;20171;-74
2023/04/23 05:33:08;;;;;;;11.60;7.65;;;13.10;99.90;;;;;;5025541;28;20069;-73
2023/04/23 05:35:34;;;;;;;15.80;8.45;;;13.10;99.90;;;;;;5010691;28;20128;-73
2023/04/23 05:38:01;;;;;;;12.95;8.05;;;13.00;99.90;;;;;;5006881;28;20030;-73
2023/04/23 05:40:27;;;;;;;11.45;7.28;;;13.10;99.90;;;;;;5022475;28;20041;-73
2023/04/23 05:42:53;;;;;;;12.48;7.82;;;13.10;99.90;;;;;;5026488;28;20033;-73
2023/04/23 05:45:20;;;;;;;9.82;7.40;;;13.10;99.90;;;;;;5015064;28;20041;-74
2023/04/23 05:47:45;;;;;;;17.85;9.18;;;13.10;99.90;;;;;;5026128;28;20026;-72
2023/04/23 05:50:11;;;;;;;14.68;8.90;;;13.20;99.90;;;;;;5025997;28;20098;-73
2023/04/23 05:52:38;;;;;;;15.43;8.25;;;13.30;99.90;;;;;;5026499;28;20117;-73
2023/04/23 05:55:05;;;;;;;14.65;8.40;;;13.30;99.90;;;;;;5026156;28;20025;-73
2023/04/23 05:57:30;;;;;;;11.38;7.70;;;13.30;99.90;;;;;;5024760;28;20037;-73
2023/04/23 05:59:56;;;;;;;13.57;7.72;;;13.30;99.90;;;;;;5025973;28;20239;-73
2023/04/23 06:02:22;;;;;;;11.23;8.43;;;13.40;99.90;;;;;;5025219;28;20037;-72
2023/04/23 06:04:48;;;;;;;13.80;9.13;;;13.40;99.90;;;;;;5025170;28;20407;-74
2023/04/23 06:07:14;;;;;;;11.93;8.55;;;13.50;99.90;;;;;;5026494;28;20108;-73
2023/04/23 06:09:40;;;;;;;11.07;8.15;;;13.60;99.90;;;;;;5026248;28;20047;-73
2023/04/23 06:12:06;;;;;;;12.50;8.25;;;13.60;99.90;;;;;;5025932;28;20099;-73
2023/04/23 06:14:31;;;;;;;12.90;6.97;;;13.40;99.90;;;;;;5026399;28;20071;-73
2023/04/23 06:16:57;;;;;;;14.50;8.55;;;13.40;99.90;;;;;;5024704;28;20088;-73
2023/04/23 06:19:26;;;;;;;10.25;8.15;;;13.50;99.90;;;;;;5025932;28;20025;-73
2023/04/23 06:21:53;;;;;;;12.40;7.63;;;13.60;99.90;;;;;;5026229;28;20021;-73
2023/04/23 06:24:18;;;;;;;13.80;9.15;;;13.80;99.90;;;;;;5025016;28;20112;-73
2023/04/23 06:26:44;;;;;;;12.13;7.72;;;13.80;99.90;;;;;;5016875;28;20117;-73
2023/04/23 06:29:10;;;;;;;16.20;9.23;;;13.90;99.90;;;;;;5006383;28;20040;-73
2023/04/23 06:31:36;;;;;;;12.77;9.10;;;14.00;99.90;;;;;;5005716;28;20026;-73
2023/04/23 06:34:02;;;;;;;12.25;7.55;;;14.10;99.90;;;;;;5022852;28;20034;-73
2023/04/23 06:36:28;;;;;;;13.02;9.20;;;14.20;99.90;;;;;;5024342;28;20559;-74
2023/04/23 06:38:54;;;;;;;12.55;8.95;;;14.10;99.90;;;;;;5025977;28;20029;-73
2023/04/23 06:41:20;;;;;;;18.33;8.73;;;14.00;99.90;;;;;;5026277;28;20067;-73
2023/04/23 06:43:47;;;;;;;12.07;7.93;;;14.00;99.90;;;;;;5026084;28;20077;-73
2023/04/23 06:46:13;;;;;;;11.55;7.45;;;14.10;99.90;;;;;;5015520;28;20475;-73
2023/04/23 06:48:39;;;;;;;11.65;7.60;;;14.10;99.90;;;;;;5019164;28;20026;-73
2023/04/23 06:51:05;;;;;;;11.02;8.30;;;14.20;99.90;;;;;;5021273;28;20088;-73
2023/04/23 06:53:30;;;;;;;12.52;8.88;;;14.20;99.90;;;;;;5025838;28;20052;-74
2023/04/23 06:55:56;;;;;;;12.57;9.20;;;14.20;99.90;;;;;;5023773;28;20040;-74
2023/04/23 06:58:26;;;;;;;13.82;8.82;;;14.20;99.90;;;;;;5011440;28;20040;-73
2023/04/23 07:00:52;;;;;;;13.15;8.73;;;14.00;99.90;;;;;;5020870;28;20478;-73
2023/04/23 07:03:18;;;;;;;12.32;8.95;;;14.20;99.90;;;;;;5024330;28;20113;-73
2023/04/23 07:05:44;;;;;;;12.45;8.90;;;14.30;99.90;;;;;;5024370;28;20034;-73
2023/04/23 07:08:09;;;;;;;14.05;8.50;;;14.40;99.90;;;;;;5025577;28;20022;-73
2023/04/23 07:10:35;;;;;;;13.52;9.02;;;14.60;99.90;;;;;;5017354;28;20041;-73
2023/04/23 07:13:01;;;;;;;19.70;11.88;;;14.80;99.90;;;;;;5023556;28;20345;-73
2023/04/23 07:15:26;;;;;;;21.20;10.95;;;14.80;99.90;;;;;;5020210;28;20095;-73
2023/04/23 07:17:52;;;;;;;19.58;10.13;;;14.80;99.90;;;;;;5017316;28;20056;-73
2023/04/23 07:20:18;;;;;;;15.80;8.95;;;14.70;99.90;;;;;;5011557;28;20439;-73
2023/04/23 07:22:46;;;;;;;13.48;9.35;;;14.80;99.90;;;;;;5014143;28;20481;-74
2023/04/23 07:25:11;;;;;;;14.65;9.57;;;14.70;99.90;;;;;;5024684;28;20041;-74
2023/04/23 07:27:37;;;;;;;13.88;10.02;;;14.80;99.90;;;;;;5025333;28;20092;-74
2023/04/23 07:30:03;;;;;;;18.60;11.00;;;14.80;99.90;;;;;;5025558;28;20472;-73
2023/04/23 07:32:29;;;;;;;13.52;9.70;;;14.70;99.90;;;;;;5018766;28;20041;-75
2023/04/23 07:34:55;;;;;;;12.85;9.07;;;14.90;99.90;;;;;;5021907;28;20037;-73
2023/04/23 07:37:21;;;;;;;14.73;9.30;;;15.50;99.90;;;;;;5010808;28;20038;-73
2023/04/23 07:39:47;;;;;;;18.23;9.13;;;15.40;99.90;;;;;;5010516;28;20033;-73
2023/04/23 07:42:13;;;;;;;13.85;10.10;;;15.20;99.90;;;;;;5016540;28;20025;-73
2023/04/23 07:44:38;;;;;;;13.82;9.73;;;15.10;99.90;;;;;;5014845;28;20034;-72
2023/04/23 07:47:04;;;;;;;12.80;8.68;;;15.00;99.90;;;;;;5009245;28;20033;-72
2023/04/23 07:49:30;;;;;;;12.93;8.80;;;15.10;99.90;;;;;;5014275;28;20029;-73
2023/04/23 07:51:55;;;;;;;15.07;9.98;;;15.20;99.90;;;;;;5030914;28;20065;-73
2023/04/23 07:54:21;;;;;;;14.93;10.48;;;15.30;99.90;;;;;;5031476;28;20022;-72
2023/04/23 07:56:47;;;;;;;14.80;10.65;;;15.40;99.90;;;;;;5027897;28;20025;-72
2023/04/23 07:59:12;;;;;;;18.02;11.90;;;15.40;99.90;;;;;;5031421;28;20029;-72
2023/04/23 08:01:38;;;;;;;16.67;10.35;;;15.40;99.90;;;;;;5031357;28;20025;-75
2023/04/23 08:04:04;;;;;;;14.73;9.10;;;15.40;99.90;;;;;;5030246;28;20134;-73
2023/04/23 08:06:30;;;;;;;14.57;10.02;;;15.30;99.90;;;;;;5028553;28;20036;-73
2023/04/23 08:08:56;;;;;;;15.38;10.40;;;15.30;99.90;;;;;;5020994;28;20034;-72
2023/04/23 08:11:22;;;;;;;15.85;10.35;;;15.50;99.90;;;;;;5027174;28;20026;-73
2023/04/23 08:13:48;;;;;;;13.48;10.18;;;15.30;99.90;;;;;;5011687;28;20437;-73
2023/04/23 08:16:14;;;;;;;14.65;10.48;;;15.30;99.90;;;;;;5011761;28;20036;-73
2023/04/23 08:18:40;;;;;;;14.70;10.10;;;15.30;99.90;;;;;;5012151;28;20041;-72
2023/04/23 08:21:06;;;;;;;13.57;9.63;;;15.40;99.90;;;;;;5011663;28;20025;-73
2023/04/23 08:23:31;;;;;;;18.02;12.38;;;15.60;99.90;;;;;;5027963;28;20028;-73
2023/04/23 08:25:57;;;;;;;19.92;11.30;;;15.60;99.90;;;;;;5031310;28;20037;-72
2023/04/23 08:28:23;;;;;;;17.25;11.00;;;15.70;99.90;;;;;;5030181;28;20052;-72
2023/04/23 08:30:48;;;;;;;14.20;10.23;;;15.90;99.90;;;;;;5011455;28;20030;-73
2023/04/23 08:33:14;;;;;;;15.82;10.77;;;17.30;99.90;;;;;;5011620;28;20455;-73
2023/04/23 08:35:40;;;;;;;14.18;9.70;;;18.70;99.90;;;;;;5029083;28;20448;-72
2023/04/23 08:38:06;;;;;;;16.60;9.60;;;18.10;99.90;;;;;;5020357;28;20092;-73
2023/04/23 08:40:32;;;;;;;13.10;9.50;;;17.60;99.90;;;;;;5010881;28;20088;-73
2023/04/23 08:43:05;;;;;;;18.00;10.93;;;17.50;99.90;;;;;;5020527;28;20498;-73
2023/04/23 08:45:33;;;;;;;14.10;10.70;;;17.00;99.90;;;;;;5026439;28;20045;-72
2023/04/23 08:48:00;;;;;;;14.93;9.95;;;16.90;99.90;;;;;;5028919;28;20029;-73
2023/04/23 08:50:28;;;;;;;13.80;9.10;;;17.20;99.90;;;;;;5030825;28;20084;-73
2023/04/23 08:52:55;;;;;;;13.75;8.55;;;17.10;99.90;;;;;;5029806;28;20034;-73
2023/04/23 08:55:22;;;;;;;12.48;8.48;;;16.80;99.90;;;;;;5018423;28;20113;-73
2023/04/23 08:57:48;;;;;;;25.05;14.27;;;16.40;99.90;;;;;;5008475;28;20034;-73
2023/04/23 09:00:19;;;;;;;17.00;12.57;;;16.30;99.90;;;;;;5018886;28;20080;-73
2023/04/23 09:02:46;;;;;;;18.10;12.07;;;16.40;99.90;;;;;;5027760;28;20479;-73
2023/04/23 09:05:13;;;;;;;16.90;10.95;;;16.50;99.90;;;;;;5027418;28;20120;-72
2023/04/23 09:07:39;;;;;;;16.70;11.90;;;16.70;99.90;;;;;;5022665;28;20391;-74
2023/04/23 09:10:07;;;;;;;14.85;9.88;;;16.80;99.90;;;;;;5029046;28;20629;-74
2023/04/23 09:12:40;;;;;;;14.00;9.80;;;16.90;99.90;;;;;;5030134;28;20021;-73
2023/04/23 09:15:09;;;;;;;18.77;12.57;;;17.10;99.90;;;;;;5030243;28;20033;-73
2023/04/23 09:17:39;;;;;;;13.75;9.73;;;17.70;99.90;;;;;;5029895;28;20080;-73
2023/04/23 09:20:07;;;;;;;12.85;8.93;;;17.90;99.90;;;;;;5029082;28;20029;-73
2023/04/23 09:22:43;;;;;;;13.48;9.10;;;18.20;99.90;;;;;;5029711;28;20056;-73
2023/04/23 09:25:11;;;;;;;12.10;8.75;;;18.20;99.90;;;;;;5030121;28;20533;-73
2023/04/23 09:27:37;;;;;;;15.40;10.23;;;18.30;99.90;;;;;;5028459;28;20045;-74
2023/04/23 09:30:08;;;;;;;12.98;9.60;;;18.20;99.90;;;;;;5028912;28;20079;-73
2023/04/23 09:32:35;;;;;;;13.77;9.35;;;18.30;99.90;;;;;;5013633;28;20029;-74
2023/04/23 09:35:03;;;;;;;11.77;8.40;;;18.30;99.90;;;;;;5023065;28;20034;-73
2023/04/23 09:37:29;;;;;;;13.70;9.35;;;18.20;99.90;;;;;;5029989;28;20030;-73
2023/04/23 09:40:03;;;;;;;17.30;9.75;;;18.10;99.90;;;;;;5029814;28;20515;-73
2023/04/23 09:42:29;;;;;;;12.68;9.63;;;18.20;99.90;;;;;;5028368;28;20024;-73
2023/04/23 09:45:03;;;;;;;15.38;10.75;;;18.40;99.90;;;;;;5029653;28;20045;-73
2023/04/23 09:47:32;;;;;;;14.10;11.40;;;18.50;99.70;;;;;;5024181;28;20022;-73
2023/04/23 09:49:58;;;;;;;17.13;12.27;;;18.60;99.90;;;;;;5019920;28;20025;-73
2023/04/23 09:52:24;;;;;;;15.95;10.55;;;18.90;99.60;;;;;;5025042;28;20061;-73
2023/04/23 09:54:50;;;;;;;14.10;10.02;;;19.00;98.60;;;;;;5023546;28;20061;-73
2023/04/23 09:57:16;;;;;;;13.40;9.60;;;19.50;97.90;;;;;;5022117;28;20455;-73
2023/04/23 09:59:42;;;;;;;13.68;9.15;;;19.50;97.60;;;;;;5009367;28;20025;-71
2023/04/23 10:02:08;;;;;;;13.50;9.63;;;19.60;97.80;;;;;;5011177;28;20037;-72
2023/04/23 10:04:34;;;;;;;13.77;9.80;;;20.10;97.20;;;;;;5025260;28;20060;-74
2023/04/23 10:07:03;;;;;;;17.23;11.32;;;20.10;97.80;;;;;;5017411;28;20062;-72
2023/04/23 10:09:29;;;;;;;18.70;10.57;;;20.40;97.40;;;;;;5020923;28;20266;-72
2023/04/23 10:11:57;;;;;;;17.77;11.88;;;20.40;97.40;;;;;;5021024;28;20108;-71
2023/04/23 10:14:24;;;;;;;14.30;10.85;;;20.20;96.70;;;;;;5016507;28;20416;-70
2023/04/23 10:16:51;;;;;;;14.48;10.05;;;20.20;97.10;;;;;;5022570;28;20075;-72
2023/04/23 10:19:21;;;;;;;17.23;11.02;;;20.80;97.50;;;;;;5025441;28;20025;-70
2023/04/23 10:21:52;;;;;;;19.02;11.10;;;21.10;96.60;;;;;;5025287;28;20029;-72
2023/04/23 10:24:20;;;;;;;13.43;9.50;;;21.10;95.90;;;;;;5025226;28;20031;-71
2023/04/23 10:26:47;;;;;;;14.63;9.00;;;21.20;96.30;;;;;;5016569;28;20105;-72
2023/04/23 10:29:17;;;;;;;14.93;9.02;;;21.20;95.70;;;;;;5023751;28;20029;-72
2023/04/23 10:31:45;;;;;;;12.18;8.50;;;20.60;94.90;;;;;;5022255;28;20033;-71
2023/04/23 10:34:11;;;;;;;14.50;9.02;;;20.40;95.00;;;;;;5014864;28;20060;-71
2023/04/23 10:36:37;;;;;;;14.90;9.40;;;21.00;94.90;;;;;;5024443;28;20025;-72
2023/04/23 10:39:07;;;;;;;11.98;8.63;;;21.20;94.80;;;;;;5024583;28;20033;-71
2023/04/23 10:41:38;;;;;;;15.18;10.13;;;21.70;94.60;;;;;;5024463;28;20021;-70
2023/04/23 10:44:05;;;;;;;12.25;8.73;;;21.50;93.90;;;;;;5024624;28;20071;-71
2023/04/23 10:46:33;;;;;;;12.57;8.95;;;21.20;94.10;;;;;;5023452;28;20029;-72
2023/04/23 10:49:15;;;;;;;12.48;8.82;;;20.90;94.20;;;;;;5025172;28;20116;-72
2023/04/23 10:51:46;;;;;;;15.77;9.68;;;20.40;94.40;;;;;;5022815;28;20376;-73
2023/04/23 10:54:17;;;;;;;11.55;7.07;;;20.30;94.70;;;;;;5011933;28;20052;-72
2023/04/23 10:56:43;;;;;;;13.75;8.75;;;20.50;94.10;;;;;;5021058;28;20045;-72
2023/04/23 10:59:31;;;;;;;10.10;7.03;;;20.50;94.00;;;;;;5025049;28;20395;-71
2023/04/23 11:02:12;;;;;;;10.75;7.32;;;20.40;94.00;;;;;;5023906;28;20029;-70
2023/04/23 11:04:44;;;;;;;12.65;7.50;;;20.30;94.30;;;;;;5017832;28;20093;-72
2023/04/23 11:07:11;;;;;;;11.82;6.90;;;20.40;94.60;;;;;;5025264;28;20116;-70
2023/04/23 11:09:46;;;;;;;12.57;7.63;;;20.30;94.20;;;;;;5025036;28;20594;-71
2023/04/23 11:12:23;;;;;;;10.05;6.70;;;20.30;94.00;;;;;;5024768;28;20522;-70
2023/04/23 11:14:51;;;;;;;10.85;6.40;;;20.40;94.20;;;;;;5024717;28;20041;-71
2023/04/23 11:17:21;;;;;;;9.95;6.63;;;20.50;93.40;;;;;;5025597;28;20029;-70
2023/04/23 11:20:09;;;;;;;12.85;7.60;;;20.80;93.30;;;;;;5022913;28;20034;-73
2023/04/23 11:22:41;;;;;;;8.50;5.93;;;21.10;92.70;;;;;;5022286;28;20029;-72
2023/04/23 11:25:12;;;;;;;12.60;6.50;;;21.50;92.60;;;;;;5016739;28;20033;-73
2023/04/23 11:27:42;;;;;;;10.45;5.03;;;21.10;92.90;;;;;;5028284;28;20063;-73
2023/04/23 11:30:23;;;;;;;15.50;6.07;;;21.40;93.40;;;;;;5027408;28;20585;-70
2023/04/23 11:32:52;;;;;;;11.68;5.28;;;21.40;92.50;;;;;;5027532;28;20067;-71
2023/04/23 11:35:19;;;;;;;10.05;5.18;;;21.30;92.30;;;;;;5027075;28;20102;-72
2023/04/23 11:37:49;;;;;;;9.35;4.88;;;21.10;92.10;;;;;;5025753;28;20535;-71
2023/04/23 11:40:19;;;;;;;8.68;4.20;;;21.30;92.10;;;;;;5025010;28;20041;-73
2023/04/23 11:42:48;;;;;;;8.23;4.35;;;21.60;91.80;;;;;;5026575;28;20660;-73
2023/04/23 11:45:20;;;;;;;9.70;5.43;;;21.60;91.40;;;;;;5020558;28;20064;-71
2023/04/23 11:47:49;;;;;;;8.23;3.42;;;21.40;91.40;;;;;;5011031;28;20037;-72
2023/04/23 11:50:20;;;;;;;7.57;4.07;;;21.50;91.20;;;;;;5022165;28;20073;-71
2023/04/23 11:52:46;;;;;;;6.63;3.75;;;21.50;91.60;;;;;;5016481;28;20031;-73
2023/04/23 11:55:12;;;;;;;7.35;3.88;;;21.50;91.20;;;;;;5028024;28;20026;-73
2023/04/23 11:57:46;;;;;;;6.40;3.20;;;21.30;91.60;;;;;;5028034;28;20925;-71
2023/04/23 12:00:23;;;;;;;9.57;4.05;;;21.50;91.20;;;;;;5021141;28;20038;-71
2023/04/23 12:02:53;;;;;;;5.00;3.13;;;21.50;91.00;;;;;;5026657;28;20025;-71
2023/04/23 12:05:30;;;;;;;5.63;3.30;;;21.80;90.70;;;;;;5024549;28;20050;-71
2023/04/23 12:08:11;;;;;;;6.65;3.10;;;21.70;89.80;;;;;;5018583;28;20506;-72
2023/04/23 12:10:48;;;;;;;7.50;3.60;;;21.70;91.00;;;;;;5016355;28;20029;-71
2023/04/23 12:13:21;;;;;;;6.50;3.60;;;21.30;90.60;;;;;;5015098;28;20529;-70
2023/04/23 12:16:12;;;;;;;7.75;3.60;;;21.10;90.70;;;;;;5028236;28;20026;-73
2023/04/23 12:18:42;;;;;;;6.60;3.42;;;20.90;90.80;;;;;;5027246;28;20037;-73
2023/04/23 12:21:12;;;;;;;8.05;3.85;;;20.80;91.50;;;;;;5026969;28;20025;-74
2023/04/23 12:23:40;;;;;;;5.32;3.55;;;20.80;91.30;;;;;;5027159;28;20080;-73
2023/04/23 12:26:10;;;;;;;5.25;3.20;;;20.70;91.50;;;;;;5021602;28;20599;-71
2023/04/23 12:28:46;;;;;;;5.53;3.00;;;20.70;91.40;;;;;;5026908;28;20109;-73
2023/04/23 12:31:19;;;;;;;8.50;3.72;;;20.70;91.70;;;;;;5028033;28;20025;-73
2023/04/23 12:33:44;;;;;;;10.73;3.30;;;20.70;91.30;;;;;;5028062;28;20640;-73
2023/04/23 12:36:15;;;;;;;5.53;3.50;;;20.80;91.10;;;;;;5020721;28;20029;-73